»·PEaware :: N147AT KSNA-KRNM

N147AT :: KSNA-KRNM

FLIGHT INFORMATION

Flight Status: Arrived
Operator: Privately registered:
United States
More flights under this callsign
Pilot: Todd C. (18613)
Aircraft: CESSNA 172 SKYHAWK
(C172)
More flights by this aircraft type
Origin: KSNA John Wayne-Orange Co
United States
Destination: KRNM Ramona
United States
More flights between these airports :: More routes between these airports
Route: V23 OCN V208 JLI
File this flight plan on PilotEdge
Remarks:
Altitude:
(Current/Filed)
7,000ft
Speed:
(Current/Filed)
120kts
Departed: 13-Feb-20 05:53 PM
Arrived: 13-Feb-20 07:16 PM
Distance/Time
Traveled:
61nm/1:23
Distance/Time
To Go:
Arrived

Flight Plot

Page will automatically refresh every two minutes.


Map Options




Map Legend


Flown Route
Filed Route
Departure Airport
Arrival Airport
Navaid (VOR, NDB)
Fix

Horizontal Profiles

Position Reports

Time Latitude Longitude Heading Altitude Ground
Speed
13-Feb-20 17:36 33.672386 -117.873096 28 60ft 0kts
13-Feb-20 17:37 33.672386 -117.873096 28 60ft 0kts
13-Feb-20 17:38 33.672386 -117.873096 28 60ft 0kts
13-Feb-20 17:39 33.672386 -117.873096 28 60ft 0kts
13-Feb-20 17:40 33.672386 -117.873096 28 60ft 0kts
13-Feb-20 17:41 33.672386 -117.873096 28 60ft 0kts
13-Feb-20 17:42 33.672386 -117.873096 28 60ft 0kts
13-Feb-20 17:43 33.672386 -117.873096 28 60ft 0kts
13-Feb-20 17:44 33.672386 -117.873096 28 60ft 0kts
13-Feb-20 17:45 33.672386 -117.873096 28 60ft 0kts
13-Feb-20 17:46 33.672386 -117.873096 28 60ft 0kts
13-Feb-20 17:47 33.672386 -117.873096 28 60ft 0kts
13-Feb-20 17:48 33.672751 -117.872166 29 60ft 12kts
13-Feb-20 17:49 33.679193 -117.868125 21 60ft 27kts
13-Feb-20 17:50 33.681166 -117.866401 117 60ft 0kts
13-Feb-20 17:51 33.680424 -117.865830 207 60ft 21kts
13-Feb-20 17:52 33.659088 -117.876889 190 604ft 99kts
13-Feb-20 17:53 33.632052 -117.880602 185 1494ft 99kts
13-Feb-20 17:54 33.604559 -117.883765 187 2299ft 100kts
13-Feb-20 17:55 33.576784 -117.886046 161 3031ft 102kts
13-Feb-20 17:56 33.563631 -117.856963 114 3817ft 102kts
13-Feb-20 17:57 33.552758 -117.825178 114 4521ft 102kts
13-Feb-20 17:58 33.543006 -117.796687 114 5154ft 103kts
13-Feb-20 17:59 33.532111 -117.764922 114 5856ft 102kts
13-Feb-20 18:00 33.514384 -117.739096 133 6553ft 99kts
13-Feb-20 18:01 33.495583 -117.713414 132 7017ft 115kts
13-Feb-20 18:02 33.472868 -117.682351 132 7021ft 128kts
13-Feb-20 18:03 33.448854 -117.652681 135 7021ft 129kts
13-Feb-20 18:04 33.423315 -117.622182 136 7018ft 131kts
13-Feb-20 18:05 33.394616 -117.594011 138 7018ft 134kts
13-Feb-20 18:06 33.367135 -117.564406 135 7018ft 130kts
13-Feb-20 18:07 33.342279 -117.533057 134 7016ft 129kts
13-Feb-20 18:08 33.317206 -117.502237 137 7013ft 128kts
13-Feb-20 18:09 33.290445 -117.474512 139 7010ft 126kts
13-Feb-20 18:10 33.264123 -117.446476 134 7008ft 126kts
13-Feb-20 18:11 33.246933 -117.411412 98 7003ft 128kts
13-Feb-20 18:12 33.238967 -117.370078 109 6999ft 127kts
13-Feb-20 18:13 33.228068 -117.329495 104 6997ft 128kts
13-Feb-20 18:14 33.221093 -117.287695 100 6996ft 128kts
13-Feb-20 18:15 33.216056 -117.245310 99 6995ft 128kts
13-Feb-20 18:16 33.211154 -117.202867 99 6994ft 129kts
13-Feb-20 18:17 33.206183 -117.160415 99 6992ft 129kts
13-Feb-20 18:18 33.200713 -117.118051 101 6991ft 129kts
13-Feb-20 18:19 33.194235 -117.075719 101 6989ft 129kts
13-Feb-20 18:20 33.188173 -117.034907 101 7306ft 112kts
13-Feb-20 18:21 33.183313 -117.000367 101 7998ft 101kts
13-Feb-20 18:22 33.179084 -116.966496 100 8536ft 106kts
13-Feb-20 18:23 33.175016 -116.931106 98 8982ft 112kts
13-Feb-20 18:24 33.171468 -116.890543 96 8995ft 128kts
13-Feb-20 18:25 33.168217 -116.847478 96 8994ft 130kts
13-Feb-20 18:26 33.165030 -116.804132 96 8992ft 130kts
13-Feb-20 18:27 33.161381 -116.760980 98 8989ft 130kts
13-Feb-20 18:28 33.155991 -116.718204 100 8987ft 130kts
13-Feb-20 18:29 33.150553 -116.675277 99 8984ft 130kts
13-Feb-20 18:30 33.145115 -116.632436 97 8982ft 130kts
13-Feb-20 18:31 33.141933 -116.589277 77 8978ft 132kts
13-Feb-20 18:32 33.158829 -116.549953 55 8721ft 138kts
13-Feb-20 18:33 33.154135 -116.517083 184 7992ft 133kts
13-Feb-20 18:34 33.146509 -116.552525 279 7708ft 119kts
13-Feb-20 18:35 33.136473 -116.587593 238 7682ft 114kts
13-Feb-20 18:36 33.123295 -116.625490 253 7083ft 128kts
13-Feb-20 18:37 33.113899 -116.665345 253 6622ft 120kts
13-Feb-20 18:38 33.104831 -116.703959 253 6189ft 120kts
13-Feb-20 18:39 33.094049 -116.741858 246 5777ft 120kts
13-Feb-20 18:40 33.082238 -116.778871 246 5404ft 119kts
13-Feb-20 18:41 33.068283 -116.814557 242 4938ft 117kts
13-Feb-20 18:42 33.054553 -116.849141 248 3677ft 111kts
13-Feb-20 18:43 33.045489 -116.874300 242 3235ft 77kts
13-Feb-20 18:44 33.035869 -116.897088 247 2666ft 77kts
13-Feb-20 18:45 33.030011 -116.918940 269 2150ft 69kts
13-Feb-20 18:46 33.033703 -116.943998 289 2270ft 79kts
13-Feb-20 18:47 33.045246 -116.967073 304 2763ft 92kts
13-Feb-20 18:48 33.057963 -116.994450 292 3589ft 95kts
13-Feb-20 18:49 33.076038 -116.992437 88 4506ft 92kts
13-Feb-20 18:50 33.074633 -116.965029 91 5252ft 96kts
13-Feb-20 18:51 33.074308 -116.933477 91 6121ft 94kts
13-Feb-20 18:52 33.079620 -116.902328 80 6890ft 97kts
13-Feb-20 18:53 33.083957 -116.870351 85 7624ft 98kts
13-Feb-20 18:54 33.089981 -116.838588 73 8312ft 99kts
13-Feb-20 18:55 33.096788 -116.806736 75 8951ft 100kts
13-Feb-20 18:56 33.107415 -116.769916 69 9006ft 128kts
13-Feb-20 18:57 33.118494 -116.729273 78 9056ft 130kts
13-Feb-20 18:58 33.124544 -116.686434 85 9055ft 130kts
13-Feb-20 18:59 33.129390 -116.643539 80 9064ft 130kts
13-Feb-20 19:00 33.137629 -116.601243 75 9072ft 131kts
13-Feb-20 19:01 33.144734 -116.558865 79 8781ft 127kts
13-Feb-20 19:02 33.137373 -116.526608 185 7862ft 122kts
13-Feb-20 19:04 33.133478 -116.557479 277 7651ft 105kts
13-Feb-20 19:05 33.132622 -116.590041 237 7570ft 111kts
13-Feb-20 19:06 33.127095 -116.625359 272 7256ft 113kts
13-Feb-20 19:07 33.117074 -116.659586 250 6874ft 108kts
13-Feb-20 19:08 33.107765 -116.693743 249 6328ft 107kts
13-Feb-20 19:09 33.095015 -116.725587 245 5811ft 106kts
13-Feb-20 19:10 33.085007 -116.758396 253 5314ft 104kts
13-Feb-20 19:11 33.076978 -116.790833 250 5207ft 83kts
13-Feb-20 19:12 33.067182 -116.814016 241 4997ft 86kts
13-Feb-20 19:13 33.058289 -116.839964 252 4391ft 84kts
13-Feb-20 19:14 33.050360 -116.866007 243 3519ft 85kts
13-Feb-20 19:15 33.041164 -116.889929 247 2305ft 76kts
13-Feb-20 19:16 33.038576 -116.911378 279 1392ft 29kts
13-Feb-20 19:17 33.039149 -116.912423 8 1392ft 0kts
13-Feb-20 19:18 33.040199 -116.913708 277 1392ft 0kts

Navigation Log

Ident Type
Flight plan parsing failed, navigation log unavailable